Time;durP1;ratioP1;P1;durP2;ratioP2;P2;SDS_P1;SDS_P2;PMS_P1;PMS_P2;Temp;Humidity;BMP_temperature;BMP_pressure;BME280_temperature;BME280_humidity;BME280_pressure;Samples;Min_cycle;Max_cycle;Signal;HPM_P1;HPM_P2
2021/12/09 09:57:14;;;;;;;9.73;5.10;;;1.70;99.90;;;;;;5134141;27;20266;-76
2021/12/09 09:59:42;;;;;;;14.30;7.03;;;1.70;99.90;;;;;;5131950;28;20499;-76
2021/12/09 10:02:10;;;;;;;10.23;5.47;;;1.60;99.90;;;;;;5132150;28;20766;-77
2021/12/09 10:04:48;;;;;;;9.83;4.63;;;1.60;99.90;;;;;;5131748;28;20442;-77
2021/12/09 10:07:17;;;;;;;9.90;5.20;;;1.60;99.90;;;;;;5131897;28;20385;-77
2021/12/09 10:09:43;;;;;;;7.37;5.67;;;1.60;99.90;;;;;;5131823;27;20407;-77
2021/12/09 10:12:09;;;;;;;14.83;9.53;;;1.70;99.90;;;;;;5130356;28;20400;-77
2021/12/09 10:14:35;;;;;;;9.50;7.17;;;1.70;99.90;;;;;;5130393;28;20792;-76
2021/12/09 10:17:24;;;;;;;27.07;15.87;;;1.80;99.90;;;;;;5130260;28;20222;-77
2021/12/09 10:19:52;;;;;;;19.10;12.37;;;2.00;99.90;;;;;;5131951;27;20945;-77
2021/12/09 10:22:21;;;;;;;13.93;9.70;;;2.00;99.90;;;;;;5131563;27;20453;-77
2021/12/09 10:24:50;;;;;;;17.57;11.33;;;1.90;99.90;;;;;;5131488;27;20441;-77
2021/12/09 10:27:30;;;;;;;27.23;16.60;;;1.90;99.90;;;;;;5130178;28;20497;-76
2021/12/09 10:30:12;;;;;;;20.37;11.50;;;2.00;99.90;;;;;;5131496;27;20752;-77
2021/12/09 10:32:39;;;;;;;31.40;15.60;;;2.00;99.90;;;;;;5130118;28;20400;-76
2021/12/09 10:35:11;;;;;;;43.73;20.80;;;2.10;99.90;;;;;;5131277;27;20459;-76
2021/12/09 10:37:39;;;;;;;41.87;19.83;;;2.00;99.90;;;;;;5130775;28;20507;-76
2021/12/09 10:40:12;;;;;;;41.87;20.37;;;1.90;99.90;;;;;;5131528;27;20403;-76
2021/12/09 10:42:43;;;;;;;47.93;20.77;;;1.90;99.90;;;;;;5131272;27;20420;-77
2021/12/09 10:45:16;;;;;;;31.77;14.30;;;2.00;99.90;;;;;;5129831;28;20436;-77
2021/12/09 10:50:42;;;;;;;37.27;18.00;;;2.20;99.90;;;;;;5131308;27;20904;-77
2021/12/09 10:55:55;;;;;;;12.43;8.63;;;2.20;99.90;;;;;;5131235;27;20987;-77
2021/12/09 10:58:28;;;;;;;8.67;5.63;;;2.20;99.90;;;;;;5131069;27;20416;-77
2021/12/09 11:01:00;;;;;;;6.30;5.13;;;2.20;99.90;;;;;;5130870;27;20878;-77
2021/12/09 11:03:34;;;;;;;12.37;9.13;;;2.10;99.90;;;;;;5130776;27;20397;-76
2021/12/09 11:06:07;;;;;;;11.17;7.37;;;2.10;99.90;;;;;;5130830;27;20393;-76
2021/12/09 11:08:41;;;;;;;21.53;14.13;;;1.90;99.90;;;;;;5117099;27;20401;-76
2021/12/09 11:11:08;;;;;;;8.13;4.97;;;1.80;99.90;;;;;;5116949;28;20397;-76
2021/12/09 11:13:41;;;;;;;11.67;7.80;;;1.80;99.90;;;;;;5116742;28;20458;-77
2021/12/09 11:16:07;;;;;;;7.53;6.83;;;1.80;99.90;;;;;;5115583;28;20445;-77
2021/12/09 11:18:38;;;;;;;12.63;7.07;;;1.80;99.90;;;;;;5117425;28;20401;-77
2021/12/09 11:21:15;;;;;;;13.97;7.80;;;1.80;99.90;;;;;;5116793;28;20421;-76
2021/12/09 11:23:43;;;;;;;18.03;7.97;;;1.80;99.90;;;;;;5116745;28;20846;-76
2021/12/09 11:26:28;;;;;;;7.33;4.60;;;1.90;99.90;;;;;;5115374;28;20918;-76
2021/12/09 11:29:00;;;;;;;5.77;5.27;;;1.80;99.90;;;;;;5115300;28;20437;-76
2021/12/09 11:31:31;;;;;;;7.30;5.03;;;1.80;99.90;;;;;;5115189;28;20424;-77
2021/12/09 11:34:02;;;;;;;6.00;4.40;;;1.60;99.90;;;;;;5116440;28;20424;-75
2021/12/09 11:37:02;;;;;;;10.83;7.37;;;1.70;99.90;;;;;;5116695;28;20463;-76
2021/12/09 11:39:33;;;;;;;8.33;5.17;;;1.60;99.90;;;;;;5101132;28;20455;-76
2021/12/09 11:42:22;;;;;;;6.97;4.70;;;1.70;99.90;;;;;;5116367;28;20382;-76
2021/12/09 11:44:48;;;;;;;7.70;5.33;;;1.60;99.90;;;;;;5115135;28;20469;-76
2021/12/09 11:47:15;;;;;;;12.10;6.73;;;1.70;99.90;;;;;;5116414;28;20433;-76
2021/12/09 11:49:45;;;;;;;12.60;7.57;;;2.30;99.90;;;;;;5114880;28;20216;-77
2021/12/09 11:52:13;;;;;;;18.50;9.77;;;1.60;99.90;;;;;;5115084;28;20485;-76
2021/12/09 11:54:40;;;;;;;14.73;8.40;;;1.70;99.90;;;;;;5116091;28;20907;-76
2021/12/09 11:57:17;;;;;;;4.70;3.57;;;1.90;99.90;;;;;;5114757;28;20464;-76
2021/12/09 12:11:24;;;;;;;20.13;9.73;;;1.90;99.90;;;;;;5115880;28;20466;-76
2021/12/09 12:14:14;;;;;;;9.30;5.43;;;1.60;99.90;;;;;;5114476;28;20468;-76
2021/12/09 12:16:57;;;;;;;28.00;13.27;;;1.60;99.90;;;;;;5116253;28;20918;-76
2021/12/09 12:25:43;;;;;;;19.10;10.60;;;1.70;99.90;;;;;;5115827;28;20428;-77
2021/12/09 12:28:27;;;;;;;11.80;7.90;;;1.60;99.90;;;;;;5115641;28;20385;-77
2021/12/09 12:39:34;;;;;;;8.37;5.33;;;1.50;99.90;;;;;;5107875;28;20936;-77
2021/12/09 12:42:06;;;;;;;17.70;10.23;;;3.60;99.90;;;;;;5115971;28;20381;-77
2021/12/09 12:44:32;;;;;;;9.77;6.20;;;1.70;99.90;;;;;;5116030;28;20784;-76
2021/12/09 12:47:39;;;;;;;7.70;4.80;;;;;;;;;;5115161;28;20405;-76
2021/12/09 12:50:17;;;;;;;6.60;4.90;;;1.90;99.90;;;;;;5111912;28;20176;-76
2021/12/09 12:52:45;;;;;;;5.43;4.17;;;;;;;;;;5111511;28;20941;-77
2021/12/09 12:55:20;;;;;;;9.07;5.03;;;1.60;99.90;;;;;;5114699;28;20978;-77
2021/12/09 12:57:51;;;;;;;8.90;5.40;;;1.90;99.90;;;;;;5115820;28;20439;-76
2021/12/09 13:00:33;;;;;;;7.43;5.57;;;2.00;99.90;;;;;;5114817;28;20409;-77
2021/12/09 13:05:57;;;;;;;8.03;5.03;;;2.10;99.90;;;;;;5115006;28;20957;-77
2021/12/09 13:08:50;;;;;;;9.17;5.73;;;1.90;99.90;;;;;;5114787;28;20397;-77
2021/12/09 13:11:37;;;;;;;10.13;5.20;;;2.00;99.90;;;;;;5114496;27;20389;-77
2021/12/09 13:14:06;;;;;;;8.23;5.60;;;2.00;99.90;;;;;;5113159;28;20984;-77
2021/12/09 13:16:47;;;;;;;7.27;4.67;;;1.80;99.90;;;;;;5113124;28;20453;-77
2021/12/09 13:19:17;;;;;;;20.17;8.63;;;1.80;99.90;;;;;;5114514;28;20386;-77
2021/12/09 13:21:58;;;;;;;9.03;5.50;;;1.90;99.90;;;;;;5114313;28;20458;-77
2021/12/09 13:24:56;;;;;;;4.60;4.10;;;1.80;99.90;;;;;;5114709;28;20497;-77
2021/12/09 13:30:41;;;;;;;4.83;3.93;;;2.70;99.90;;;;;;5114569;28;20803;-77
2021/12/09 13:47:21;;;;;;;11.17;5.77;;;1.50;99.90;;;;;;5114634;28;20393;-77
2021/12/09 13:49:59;;;;;;;51.17;20.83;;;1.40;99.90;;;;;;5114141;28;20401;-76
2021/12/09 13:55:12;;;;;;;34.03;16.47;;;1.50;99.90;;;;;;5114186;28;20493;-77
2021/12/09 13:57:44;;;;;;;25.40;10.80;;;1.50;99.90;;;;;;5112953;28;20405;-77
2021/12/09 14:00:24;;;;;;;41.90;18.67;;;1.40;99.90;;;;;;5113830;28;20437;-77
2021/12/09 14:02:55;;;;;;;23.67;9.77;;;1.40;99.90;;;;;;5114070;28;20480;-77
2021/12/09 14:05:22;;;;;;;15.00;7.37;;;1.40;99.90;;;;;;5113970;28;20512;-77
2021/12/09 14:07:59;;;;;;;6.77;5.30;;;1.40;99.90;;;;;;5113934;28;20405;-77
2021/12/09 14:10:28;;;;;;;35.23;14.83;;;1.30;99.90;;;;;;5112599;28;20429;-77
2021/12/09 14:13:01;;;;;;;29.83;12.83;;;1.30;99.90;;;;;;5113919;28;20406;-76
2021/12/09 14:15:41;;;;;;;21.23;9.80;;;1.30;99.90;;;;;;5112588;28;20503;-77
2021/12/09 14:18:15;;;;;;;29.47;13.63;;;1.30;99.90;;;;;;5113887;28;20408;-76
2021/12/09 14:20:41;;;;;;;28.30;12.97;;;1.40;99.90;;;;;;5112527;28;20882;-77
2021/12/09 14:23:09;;;;;;;26.87;12.60;;;1.20;99.90;;;;;;5113980;28;20500;-77
2021/12/09 14:25:36;;;;;;;45.77;18.00;;;1.20;99.90;;;;;;5113968;28;20196;-76
2021/12/09 14:28:09;;;;;;;55.07;23.73;;;1.20;99.90;;;;;;5114166;28;20451;-77
2021/12/09 14:30:35;;;;;;;45.90;18.37;;;1.20;99.90;;;;;;5114317;28;20405;-77
2021/12/09 14:33:01;;;;;;;26.97;11.57;;;2.00;99.90;;;;;;5115998;28;20417;-77
2021/12/09 14:35:33;;;;;;;38.57;17.33;;;1.30;99.90;;;;;;5114735;28;20195;-76
2021/12/09 14:37:59;;;;;;;37.33;16.67;;;1.10;99.90;;;;;;5113972;28;20158;-77
2021/12/09 14:40:38;;;;;;;19.53;10.23;;;1.10;99.90;;;;;;5113619;28;20429;-77
2021/12/09 14:43:09;;;;;;;26.47;14.50;;;1.10;99.90;;;;;;5116080;28;20813;-77
2021/12/09 14:45:57;;;;;;;13.63;8.33;;;1.20;99.90;;;;;;5117561;28;20479;-77
2021/12/09 14:48:35;;;;;;;9.47;5.40;;;1.10;99.90;;;;;;5109705;28;20471;-76
2021/12/09 14:51:21;;;;;;;29.37;12.53;;;1.10;99.90;;;;;;5115928;28;20512;-77
2021/12/09 14:54:01;;;;;;;21.93;10.47;;;1.10;99.90;;;;;;5115925;28;20494;-76
2021/12/09 14:56:36;;;;;;;15.33;7.80;;;1.10;99.90;;;;;;5117174;28;20460;-77
2021/12/09 14:59:28;;;;;;;17.83;8.43;;;1.10;99.90;;;;;;5117516;28;20409;-76
2021/12/09 15:02:12;;;;;;;73.97;27.33;;;1.00;99.90;;;;;;5117136;28;20405;-77
2021/12/09 15:04:44;;;;;;;26.47;12.93;;;1.00;99.90;;;;;;5117019;28;20420;-77
2021/12/09 15:07:24;;;;;;;33.47;14.53;;;1.00;99.90;;;;;;5117082;28;20385;-77
2021/12/09 15:10:11;;;;;;;19.73;9.77;;;1.40;99.90;;;;;;5117012;28;20879;-77
2021/12/09 15:12:39;;;;;;;29.63;14.73;;;1.00;99.90;;;;;;5117167;27;20530;-76
2021/12/09 15:15:15;;;;;;;7.73;5.63;;;1.00;99.90;;;;;;5115423;28;20934;-76
2021/12/09 15:18:11;;;;;;;16.40;10.93;;;0.90;99.90;;;;;;5116938;28;20474;-77
2021/12/09 15:20:52;;;;;;;17.13;9.87;;;0.90;99.90;;;;;;5103062;28;20922;-77
2021/12/09 15:23:52;;;;;;;14.67;8.03;;;0.90;99.90;;;;;;5116708;28;20384;-77
2021/12/09 15:26:20;;;;;;;14.43;9.10;;;1.00;99.90;;;;;;5116693;28;20950;-77
2021/12/09 15:29:00;;;;;;;17.73;12.37;;;0.80;99.90;;;;;;5116866;27;20409;-77
2021/12/09 15:31:26;;;;;;;10.27;5.80;;;0.90;99.90;;;;;;5116499;28;20439;-76
2021/12/09 15:33:52;;;;;;;9.40;7.83;;;0.80;99.90;;;;;;5116740;28;20437;-76
2021/12/09 15:36:28;;;;;;;26.60;17.00;;;0.80;99.90;;;;;;5116374;28;20202;-77
2021/12/09 15:39:05;;;;;;;16.13;9.17;;;0.80;99.90;;;;;;5115223;28;20409;-76
2021/12/09 15:41:35;;;;;;;9.93;7.40;;;0.70;99.90;;;;;;5116173;28;20960;-77
2021/12/09 15:44:14;;;;;;;13.37;9.70;;;0.70;99.90;;;;;;5116495;28;20516;-77
2021/12/09 15:47:06;;;;;;;21.10;14.40;;;0.70;99.90;;;;;;5116513;28;20394;-77
2021/12/09 15:49:57;;;;;;;13.50;8.63;;;0.70;99.90;;;;;;5116541;28;20390;-77
2021/12/09 15:52:42;;;;;;;6.77;4.80;;;0.70;99.90;;;;;;5115990;28;20398;-77
2021/12/09 15:55:23;;;;;;;23.07;14.40;;;0.70;99.90;;;;;;5114473;28;20481;-77
2021/12/09 15:57:51;;;;;;;10.00;6.57;;;0.70;99.90;;;;;;5116351;28;20397;-77
2021/12/09 16:00:23;;;;;;;134.93;63.23;;;0.70;99.90;;;;;;5115740;28;20917;-77
2021/12/09 16:02:49;;;;;;;61.50;27.30;;;0.70;99.90;;;;;;5115900;28;20389;-77
2021/12/09 16:05:14;;;;;;;86.53;37.57;;;0.70;99.90;;;;;;5115860;28;20457;-77
2021/12/09 16:07:40;;;;;;;50.53;24.07;;;0.70;99.90;;;;;;5116449;28;20436;-77
2021/12/09 16:10:08;;;;;;;18.63;10.13;;;0.70;99.90;;;;;;5115827;28;20164;-77
2021/12/09 16:12:34;;;;;;;11.47;7.20;;;0.60;99.90;;;;;;5116368;28;20178;-77
2021/12/09 16:15:01;;;;;;;13.33;8.97;;;0.60;99.90;;;;;;5115744;28;20425;-77
2021/12/09 16:17:33;;;;;;;13.30;9.37;;;0.60;99.90;;;;;;5115602;28;20170;-78
2021/12/09 16:20:06;;;;;;;6.47;5.03;;;0.70;99.90;;;;;;5113936;28;20952;-77
2021/12/09 16:22:32;;;;;;;6.57;4.43;;;0.90;99.90;;;;;;5114611;28;20397;-78
2021/12/09 16:25:13;;;;;;;9.13;7.50;;;0.60;99.90;;;;;;5115227;28;20428;-79
2021/12/09 16:27:50;;;;;;;9.20;6.70;;;0.60;99.90;;;;;;5115824;28;20171;-78
2021/12/09 16:30:19;;;;;;;11.70;6.70;;;0.60;99.90;;;;;;5115528;28;20743;-78
2021/12/09 16:32:47;;;;;;;9.00;5.67;;;0.50;99.90;;;;;;5116565;28;20491;-77
2021/12/09 16:35:17;;;;;;;8.90;6.43;;;0.50;99.90;;;;;;5115269;28;20443;-76
2021/12/09 16:37:45;;;;;;;7.00;5.57;;;0.70;99.90;;;;;;5115422;28;20426;-76
2021/12/09 16:40:23;;;;;;;5.57;4.23;;;0.50;99.90;;;;;;5113874;28;20513;-77
